Time;durP1;ratioP1;P1;durP2;ratioP2;P2;SDS_P1;SDS_P2;PMS_P1;PMS_P2;Temp;Humidity;BMP_temperature;BMP_pressure;BME280_temperature;BME280_humidity;BME280_pressure;Samples;Min_cycle;Max_cycle;Signal;HPM_P1;HPM_P2
2022/10/22 00:02:06;;;;;;;18.25;12.60;;;;;;;2.96;72.42;101204.05;1760660;79;21201;-48
2022/10/22 00:04:34;;;;;;;11.10;5.55;;;;;;;3.01;72.38;101204.73;1763283;80;21001;-48
2022/10/22 00:07:00;;;;;;;15.63;11.93;;;;;;;3.04;72.58;101199.85;1758039;81;21047;-47
2022/10/22 00:09:27;;;;;;;10.20;5.85;;;;;;;3.06;72.74;101197.61;1765680;79;21031;-48
2022/10/22 00:11:53;;;;;;;12.13;6.55;;;;;;;3.11;72.84;101201.33;1762861;80;21550;-48
2022/10/22 00:14:20;;;;;;;9.85;5.83;;;;;;;3.16;72.91;101192.91;1758203;80;21239;-47
2022/10/22 00:16:46;;;;;;;12.95;5.92;;;;;;;3.27;72.76;101186.87;1773244;80;21534;-48
2022/10/22 00:19:14;;;;;;;10.03;5.03;;;;;;;3.37;72.66;101188.68;1759209;79;21058;-48
2022/10/22 00:21:41;;;;;;;14.78;11.25;;;;;;;3.43;72.54;101188.47;1751156;80;21011;-48
2022/10/22 00:24:07;;;;;;;10.25;5.72;;;;;;;3.44;72.57;101186.23;1765985;80;21377;-48
2022/10/22 00:26:34;;;;;;;12.82;6.22;;;;;;;3.48;72.57;101186.53;1751797;79;21253;-48
2022/10/22 00:29:01;;;;;;;11.65;5.35;;;;;;;3.51;72.48;101191.63;1764756;79;21122;-47
2022/10/22 00:31:27;;;;;;;12.75;6.05;;;;;;;3.53;72.30;101185.91;1784361;79;21306;-48
2022/10/22 00:33:54;;;;;;;10.80;5.40;;;;;;;3.62;71.95;101176.06;1766761;79;21058;-48
2022/10/22 00:36:21;;;;;;;11.25;5.95;;;;;;;3.65;71.70;101169.44;1766388;80;21090;-48
2022/10/22 00:38:47;;;;;;;11.28;5.20;;;;;;;3.66;71.72;101165.45;1766376;79;21230;-48
2022/10/22 00:41:14;;;;;;;12.33;6.00;;;;;;;3.67;71.72;101155.91;1750508;82;21070;-48
2022/10/22 00:44:01;;;;;;;11.05;5.60;;;;;;;3.66;71.70;101151.59;1758188;79;21086;-48
2022/10/22 00:46:28;;;;;;;16.23;6.08;;;;;;;3.62;71.56;101150.03;1749561;82;21074;-47
2022/10/22 00:48:56;;;;;;;12.18;5.28;;;;;;;3.60;71.41;101143.59;1754768;79;21569;-48
2022/10/22 00:51:25;;;;;;;11.43;5.17;;;;;;;3.64;71.15;101152.95;1764031;79;21210;-47
2022/10/22 00:53:54;;;;;;;12.07;5.37;;;;;;;3.65;71.03;101144.72;1751054;80;21054;-47
2022/10/22 00:56:22;;;;;;;11.22;5.80;;;;;;;3.63;71.11;101143.91;1756511;79;21038;-48
2022/10/22 00:58:57;;;;;;;15.13;11.22;;;;;;;3.61;71.13;101136.61;1804704;79;21565;-47
2022/10/22 01:01:27;;;;;;;11.25;4.22;;;;;;;3.60;71.15;101142.28;1764477;79;21560;-47
2022/10/22 01:03:54;;;;;;;10.08;5.10;;;;;;;3.62;71.16;101136.56;1752295;80;21741;-47
2022/10/22 01:06:26;;;;;;;13.58;6.55;;;;;;;3.70;71.02;101139.71;1772552;79;21541;-47
2022/10/22 01:08:58;;;;;;;10.50;4.92;;;;;;;3.79;70.92;101125.48;1751650;80;21105;-47
2022/10/22 01:11:53;;;;;;;10.38;4.65;;;;;;;3.79;70.83;101116.37;1782447;79;21031;-47
2022/10/22 01:14:47;;;;;;;11.05;5.40;;;;;;;3.78;70.82;101107.31;1753856;79;21549;-47
2022/10/22 01:17:32;;;;;;;11.00;5.37;;;;;;;3.77;70.77;101097.83;1796432;79;21182;-47
2022/10/22 01:20:37;;;;;;;12.65;5.87;;;;;;;3.75;70.72;101091.37;1762038;80;21074;-47
2022/10/22 01:23:27;;;;;;;15.05;10.60;;;;;;;3.80;70.49;101101.16;1758761;79;21117;-48
2022/10/22 01:26:14;;;;;;;10.63;4.55;;;;;;;3.89;70.20;101108.58;1756609;80;21058;-48
2022/10/22 01:29:08;;;;;;;17.25;11.12;;;;;;;3.94;70.03;101101.05;1751378;80;21011;-48
2022/10/22 01:31:40;;;;;;;9.58;3.95;;;;;;;3.92;70.00;101103.71;1755893;80;21547;-48
2022/10/22 01:34:07;;;;;;;17.45;12.30;;;;;;;3.87;70.02;101090.87;1753701;79;21094;-47
2022/10/22 01:36:34;;;;;;;17.12;5.45;;;;;;;3.83;70.00;101080.20;1675849;84;21090;-48
2022/10/22 01:39:00;;;;;;;16.12;10.78;;;;;;;3.81;69.99;101095.02;1745142;80;21113;-48
2022/10/22 01:41:28;;;;;;;10.90;5.50;;;;;;;3.81;69.86;101093.72;1798535;78;21053;-48
2022/10/22 01:43:55;;;;;;;16.25;10.63;;;;;;;3.88;69.62;101091.71;1799397;78;21132;-48
2022/10/22 01:46:23;;;;;;;7.22;3.80;;;;;;;3.93;69.36;101096.73;1781834;78;21090;-48
2022/10/22 01:51:58;;;;;;;14.15;10.25;;;;;;;3.87;69.65;101093.48;1785696;79;22676;-47
2022/10/22 01:54:42;;;;;;;9.67;4.37;;;;;;;4.00;68.81;101096.88;1755595;81;21537;-48
2022/10/22 01:57:20;;;;;;;11.25;5.22;;;;;;;3.94;68.97;101099.75;1701804;82;21157;-47
2022/10/22 02:00:11;;;;;;;15.78;10.40;;;;;;;3.90;69.09;101097.27;1681602;84;21142;-47
2022/10/22 02:03:07;;;;;;;15.75;9.88;;;;;;;3.96;68.98;101093.55;1664963;84;21046;-47
2022/10/22 02:05:51;;;;;;;10.15;4.75;;;;;;;4.00;68.96;101093.84;1699611;83;21556;-47
2022/10/22 02:08:24;;;;;;;11.93;5.37;;;;;;;3.99;69.20;101088.69;1682305;84;21126;-48
2022/10/22 02:10:51;;;;;;;11.25;5.87;;;;;;;3.97;69.33;101082.67;1692757;83;21091;-48
2022/10/22 02:13:36;;;;;;;18.25;10.35;;;;;;;3.97;69.42;101078.77;1691323;84;21070;-48
2022/10/22 02:16:07;;;;;;;9.30;4.65;;;;;;;3.98;69.43;101081.30;1706194;83;21116;-47
2022/10/22 02:18:35;;;;;;;11.85;5.45;;;;;;;4.04;69.53;101069.81;1692349;83;21069;-48
2022/10/22 02:21:01;;;;;;;10.23;5.42;;;;;;;4.12;69.56;101070.77;1701012;83;21068;-48
2022/10/22 02:23:29;;;;;;;9.63;4.83;;;;;;;4.19;69.59;101074.37;1714990;83;21233;-47
2022/10/22 02:26:20;;;;;;;9.93;4.15;;;;;;;4.23;69.56;101073.31;1715528;83;21526;-48
2022/10/22 02:29:11;;;;;;;10.93;5.30;;;;;;;4.22;69.53;101074.24;1681051;83;21054;-48
2022/10/22 02:31:41;;;;;;;13.45;5.55;;;;;;;4.22;69.57;101072.94;1692502;83;21003;-49
2022/10/22 02:34:10;;;;;;;11.50;5.45;;;;;;;4.22;69.62;101081.19;1705466;82;21562;-47
2022/10/22 02:36:40;;;;;;;12.80;9.15;;;;;;;4.21;69.48;101064.72;1692036;83;21192;-48
2022/10/22 02:39:08;;;;;;;10.48;5.10;;;;;;;4.30;69.26;101062.64;1694410;83;21109;-48
2022/10/22 02:41:34;;;;;;;10.15;5.20;;;;;;;4.32;69.06;101055.59;1707862;83;21070;-47
2022/10/22 02:44:01;;;;;;;10.35;6.10;;;;;;;4.29;69.12;101048.77;1713457;83;21027;-47
2022/10/22 02:46:28;;;;;;;14.47;10.23;;;;;;;4.28;69.33;101046.61;1691970;83;21053;-47
2022/10/22 02:48:55;;;;;;;8.73;5.08;;;;;;;4.30;69.41;101043.09;1695367;83;21219;-48
2022/10/22 02:51:21;;;;;;;10.88;4.53;;;;;;;4.30;69.32;101030.91;1699055;83;21084;-48
2022/10/22 02:53:48;;;;;;;15.13;10.03;;;;;;;4.32;69.20;101030.84;1712859;83;21024;-48
2022/10/22 02:56:15;;;;;;;8.50;4.33;;;;;;;4.38;68.93;101027.98;1705464;83;21636;-48
2022/10/22 02:58:41;;;;;;;15.43;9.80;;;;;;;4.45;68.76;101026.80;1684743;83;21110;-48
2022/10/22 03:01:08;;;;;;;9.93;4.50;;;;;;;4.44;68.71;101016.83;1702054;83;21100;-48
2022/10/22 03:03:36;;;;;;;15.32;10.25;;;;;;;4.45;68.65;101019.84;1685190;83;21102;-48
2022/10/22 03:06:06;;;;;;;14.93;10.30;;;;;;;4.45;68.58;101015.06;1707882;83;21004;-48
2022/10/22 03:08:33;;;;;;;11.88;4.87;;;;;;;4.42;68.52;101014.77;1711151;83;21323;-48
2022/10/22 03:11:00;;;;;;;11.18;4.83;;;;;;;4.44;68.49;101018.60;1687726;83;21118;-48
2022/10/22 03:13:28;;;;;;;13.83;9.08;;;;;;;4.52;68.29;101022.98;1683766;85;21037;-48
2022/10/22 03:15:54;;;;;;;21.45;5.40;;;;;;;4.57;68.13;101025.40;1700363;83;21091;-48
2022/10/22 03:18:22;;;;;;;16.10;9.80;;;;;;;4.61;68.14;101030.41;1710483;83;21610;-48
2022/10/22 03:20:49;;;;;;;10.98;5.47;;;;;;;4.61;68.09;101033.02;1708271;83;21055;-47
2022/10/22 03:23:18;;;;;;;13.32;9.80;;;;;;;4.60;68.04;101027.41;1703675;83;21099;-48
2022/10/22 03:25:46;;;;;;;11.40;6.10;;;;;;;4.58;67.92;101029.71;1684852;83;21829;-47
2022/10/22 03:28:13;;;;;;;11.45;4.35;;;;;;;4.52;67.79;101033.41;1707108;83;21095;-48
2022/10/22 03:30:39;;;;;;;14.35;5.25;;;;;;;4.49;67.71;101026.20;1684732;83;21027;-47
2022/10/22 03:33:07;;;;;;;12.33;5.78;;;;;;;4.47;67.54;101010.63;1706914;83;21118;-48
2022/10/22 03:35:38;;;;;;;14.85;10.95;;;;;;;4.46;67.53;101008.48;1694824;82;21110;-48
2022/10/22 03:38:04;;;;;;;13.65;9.65;;;;;;;4.43;67.67;101008.61;1710231;83;21251;-48
2022/10/22 03:40:31;;;;;;;10.03;5.37;;;;;;;4.45;67.90;101008.55;1695151;83;21110;-47
2022/10/22 03:42:58;;;;;;;10.25;4.62;;;;;;;4.48;67.92;101005.81;1704751;83;21518;-48
2022/10/22 03:45:25;;;;;;;12.85;9.40;;;;;;;4.45;67.81;100995.52;1709094;83;21044;-48
2022/10/22 03:47:52;;;;;;;15.20;5.65;;;;;;;4.39;67.66;100997.11;1700603;83;21447;-48
2022/10/22 03:50:18;;;;;;;8.63;4.00;;;;;;;4.38;67.59;100992.34;1690618;83;21300;-48
2022/10/22 03:52:46;;;;;;;14.98;9.73;;;;;;;4.46;67.45;100988.10;1737588;81;21470;-48
2022/10/22 03:55:12;;;;;;;12.60;4.37;;;;;;;4.52;67.21;100979.16;1698531;84;21062;-48
2022/10/22 03:57:40;;;;;;;14.20;10.00;;;;;;;4.49;67.10;100980.16;1685477;82;21070;-48
2022/10/22 04:00:09;;;;;;;15.18;9.63;;;;;;;4.48;67.09;100979.75;1714620;81;21011;-48
2022/10/22 04:02:38;;;;;;;17.27;9.28;;;;;;;4.48;67.03;100971.94;1734372;81;21254;-47
2022/10/22 04:05:06;;;;;;;10.63;4.20;;;;;;;4.48;66.91;100973.70;1685940;83;21047;-48
2022/10/22 04:07:32;;;;;;;11.43;7.85;;;;;;;4.46;66.93;100976.37;1691112;82;21051;-48
2022/10/22 04:09:59;;;;;;;9.63;4.25;;;;;;;4.48;66.92;100971.09;1688795;84;21082;-48
2022/10/22 04:12:25;;;;;;;15.18;9.38;;;;;;;4.59;66.68;100967.52;1693054;82;21782;-48
2022/10/22 04:14:53;;;;;;;11.70;4.92;;;;;;;4.64;66.33;100964.28;1698968;84;21879;-48
2022/10/22 04:17:19;;;;;;;13.62;8.45;;;;;;;4.67;66.32;100968.02;1692745;83;21565;-47
2022/10/22 04:19:47;;;;;;;14.83;8.88;;;;;;;4.69;66.30;100966.22;1684391;83;21039;-48
2022/10/22 04:22:14;;;;;;;10.03;5.35;;;;;;;4.72;66.13;100963.91;1732286;81;21051;-48
2022/10/22 04:24:42;;;;;;;11.65;4.20;;;;;;;4.73;66.01;100965.61;1734378;82;21466;-48
2022/10/22 04:27:09;;;;;;;12.30;5.10;;;;;;;4.71;66.00;100960.90;1737123;81;21177;-48
2022/10/22 04:29:36;;;;;;;14.38;9.03;;;;;;;4.71;66.04;100962.20;1736667;81;21482;-47
2022/10/22 04:32:03;;;;;;;17.87;10.50;;;;;;;4.78;65.92;100959.72;1702677;82;21063;-48
2022/10/22 04:34:31;;;;;;;16.12;9.70;;;;;;;4.87;65.65;100958.44;1738286;81;21622;-48
2022/10/22 04:36:59;;;;;;;15.30;8.68;;;;;;;4.91;65.54;100952.15;1732120;82;21063;-48
2022/10/22 04:39:26;;;;;;;13.08;8.73;;;;;;;4.95;65.60;100965.45;1742730;81;21440;-48
2022/10/22 04:41:54;;;;;;;13.28;5.80;;;;;;;4.98;65.55;100960.92;1733436;81;21001;-48
2022/10/22 04:44:20;;;;;;;10.80;5.22;;;;;;;5.00;65.40;100952.56;1731914;82;21025;-48
2022/10/22 04:46:47;;;;;;;9.93;4.53;;;;;;;4.97;65.12;100950.09;1725399;82;21123;-47
2022/10/22 04:49:13;;;;;;;13.45;8.50;;;;;;;4.94;65.14;100958.53;1737784;80;21054;-48
2022/10/22 04:51:40;;;;;;;8.80;3.67;;;;;;;4.94;65.03;100949.40;1734780;81;21311;-47
2022/10/22 04:54:07;;;;;;;13.75;8.53;;;;;;;5.01;64.84;100947.75;1715461;82;21053;-47
2022/10/22 04:56:34;;;;;;;10.45;5.28;;;;;;;5.06;64.68;100945.36;1707655;82;21126;-48
2022/10/22 04:59:04;;;;;;;13.25;8.98;;;;;;;5.10;64.69;100949.06;1706318;83;21041;-47
2022/10/22 05:01:36;;;;;;;13.95;9.08;;;;;;;5.13;64.51;100951.53;1730271;82;21084;-48
2022/10/22 05:04:04;;;;;;;15.05;9.13;;;;;;;5.16;64.33;100958.34;1732467;82;21096;-47
2022/10/22 05:06:32;;;;;;;8.53;4.33;;;;;;;5.16;64.26;100955.30;1735029;82;21076;-48
2022/10/22 05:09:02;;;;;;;9.93;4.55;;;;;;;5.16;64.08;100949.21;1727172;82;21123;-48
2022/10/22 05:11:34;;;;;;;11.50;4.08;;;;;;;5.17;64.08;100956.13;1733742;82;21044;-48
2022/10/22 05:14:04;;;;;;;16.85;7.87;;;;;;;5.19;63.96;100949.07;1730819;81;21636;-47
2022/10/22 05:16:32;;;;;;;12.82;8.45;;;;;;;5.31;63.75;100947.19;1719982;82;21918;-47
2022/10/22 05:18:59;;;;;;;12.23;4.47;;;;;;;5.41;63.80;100951.47;1734014;82;21592;-47
2022/10/22 05:21:27;;;;;;;15.58;9.15;;;;;;;5.48;63.75;100945.48;1719752;81;21060;-47
2022/10/22 05:23:58;;;;;;;10.15;5.45;;;;;;;5.52;63.67;100945.73;1733216;82;21138;-47
2022/10/22 05:26:25;;;;;;;18.32;5.53;;;;;;;5.52;63.48;100942.66;1734394;82;21049;-47
2022/10/22 05:28:52;;;;;;;13.13;7.40;;;;;;;5.56;63.42;100949.87;1729079;82;21241;-46
2022/10/22 05:31:19;;;;;;;13.22;8.15;;;;;;;5.57;63.52;100948.48;1732694;82;21100;-47
2022/10/22 05:33:46;;;;;;;13.38;7.90;;;;;;;5.60;63.48;100946.20;1727307;82;21061;-47
2022/10/22 05:36:18;;;;;;;11.75;5.30;;;;;;;5.63;63.23;100945.19;1730535;82;21087;-47
2022/10/22 05:38:46;;;;;;;15.25;8.93;;;;;;;5.73;63.03;100939.88;1731488;82;21112;-47
2022/10/22 05:41:21;;;;;;;13.70;8.40;;;;;;;5.80;62.84;100939.97;1731135;81;21294;-46
2022/10/22 05:43:48;;;;;;;10.58;4.78;;;;;;;5.83;62.73;100939.78;1733378;82;21546;-47
2022/10/22 05:46:19;;;;;;;13.40;8.98;;;;;;;5.86;62.56;100945.33;1731851;82;21045;-46
2022/10/22 05:48:52;;;;;;;12.33;7.53;;;;;;;5.85;62.51;100949.72;1729036;82;20989;-47
2022/10/22 05:51:20;;;;;;;13.48;8.00;;;;;;;5.86;62.28;100946.16;1723374;81;21709;-47
2022/10/22 05:53:52;;;;;;;15.63;9.00;;;;;;;5.86;62.18;100957.08;1738768;80;21724;-47
2022/10/22 05:56:20;;;;;;;12.30;5.90;;;;;;;5.84;62.31;100957.16;1717569;81;21668;-47
2022/10/22 05:58:46;;;;;;;13.83;7.90;;;;;;;5.85;62.33;100967.13;1742676;81;21001;-47
2022/10/22 06:01:19;;;;;;;11.48;7.15;;;;;;;5.85;62.36;100966.69;1713680;82;21078;-48
2022/10/22 06:03:46;;;;;;;14.95;8.48;;;;;;;5.95;62.23;100961.38;1738299;82;21495;-50
2022/10/22 06:06:33;;;;;;;15.13;7.67;;;;;;;6.05;62.13;100958.31;1739118;82;22056;-47
2022/10/22 06:09:04;;;;;;;;;;;;;;;6.08;61.99;100958.98;1684869;82;21077;-47
2022/10/22 06:11:31;;;;;;;9.38;3.90;;;;;;;6.11;61.81;100955.39;1688447;84;20193;-47
2022/10/22 06:18:30;;;;;;;7.37;3.83;;;;;;;6.14;61.93;100936.47;1791464;78;22595;-62
2022/10/22 06:21:07;;;;;;;11.73;4.95;;;;;;;6.17;61.89;100939.84;1740671;80;21042;-62
2022/10/22 06:23:35;;;;;;;13.05;8.55;;;;;;;6.20;61.83;100941.83;1775739;80;21895;-63
2022/10/22 06:26:01;;;;;;;12.28;7.58;;;;;;;6.22;61.74;100940.00;1769202;80;20963;-63
2022/10/22 06:28:28;;;;;;;12.55;8.03;;;;;;;6.25;61.78;100933.75;1754662;81;21019;-62
2022/10/22 06:30:57;;;;;;;11.10;7.20;;;;;;;6.33;61.64;100928.95;1754720;81;21516;-62
2022/10/22 06:33:25;;;;;;;11.80;7.37;;;;;;;6.48;61.55;100920.28;1782318;78;21065;-62
2022/10/22 06:35:52;;;;;;;12.78;7.62;;;;;;;6.65;61.61;100928.98;1771537;78;22973;-62
2022/10/22 06:38:18;;;;;;;11.75;7.00;;;;;;;6.82;61.87;100928.05;1740617;80;21697;-62
2022/10/22 06:40:45;;;;;;;11.93;7.72;;;;;;;7.00;61.31;100924.87;1728034;81;21558;-61
2022/10/22 06:43:13;;;;;;;15.55;8.03;;;;;;;7.16;61.19;100921.78;1708279;81;21050;-61
2022/10/22 06:45:40;;;;;;;12.65;7.83;;;;;;;7.32;60.93;100932.20;1720089;83;21100;-61
2022/10/22 06:48:06;;;;;;;10.80;7.47;;;;;;;7.47;60.24;100927.84;1708662;82;21265;-61
2022/10/22 06:50:34;;;;;;;14.85;7.92;;;;;;;7.59;59.81;100923.19;1701727;83;21074;-61
2022/10/22 06:53:01;;;;;;;13.45;7.05;;;;;;;7.70;59.47;100917.78;1710752;83;21094;-61
2022/10/22 06:55:27;;;;;;;18.35;7.67;;;;;;;7.80;59.08;100919.78;1707863;84;21062;-62
2022/10/22 06:57:54;;;;;;;12.23;7.80;;;;;;;7.88;58.82;100912.75;1707843;82;21074;-61
2022/10/22 07:00:21;;;;;;;11.50;7.15;;;;;;;7.95;58.89;100921.09;1728315;81;21390;-61
2022/10/22 07:02:51;;;;;;;15.13;7.67;;;;;;;8.02;58.28;100913.70;1745699;81;21575;-62
2022/10/22 07:05:18;;;;;;;10.28;7.08;;;;;;;8.07;57.72;100913.81;1770855;80;21039;-61
2022/10/22 07:07:46;;;;;;;14.18;7.42;;;;;;;8.11;57.55;100911.84;1733986;81;21053;-61
2022/10/22 07:10:14;;;;;;;13.28;6.95;;;;;;;8.14;57.24;100908.56;1737915;81;21114;-61
2022/10/22 07:12:40;;;;;;;11.60;7.58;;;;;;;8.18;57.20;100900.03;1726784;80;21250;-61
2022/10/22 07:15:09;;;;;;;12.98;7.05;;;;;;;8.19;56.95;100906.97;1730491;82;20987;-62
2022/10/22 07:17:37;;;;;;;11.60;6.85;;;;;;;8.25;56.80;100914.91;1699801;81;21095;-61
2022/10/22 07:20:06;;;;;;;13.53;7.45;;;;;;;8.30;57.00;100908.92;1686447;84;21086;-61
2022/10/22 07:22:34;;;;;;;11.45;6.75;;;;;;;8.38;56.87;100911.43;1678922;85;21060;-61
2022/10/22 07:25:00;;;;;;;11.15;6.40;;;;;;;8.51;56.77;100912.02;1680251;84;21142;-62
2022/10/22 07:27:27;;;;;;;10.50;6.03;;;;;;;8.69;56.66;100907.38;1721361;83;21051;-61
2022/10/22 07:29:53;;;;;;;12.65;6.47;;;;;;;8.87;55.93;100914.55;1721666;82;21012;-61
2022/10/22 07:32:20;;;;;;;10.88;6.72;;;;;;;8.96;55.72;100910.48;1720791;83;21595;-61
2022/10/22 07:34:46;;;;;;;9.70;6.42;;;;;;;9.04;55.83;100905.09;1721301;82;21272;-62
2022/10/22 07:37:14;;;;;;;11.05;7.33;;;;;;;9.14;55.74;100896.15;1686007;84;21263;-62
2022/10/22 07:39:41;;;;;;;10.85;6.15;;;;;;;9.23;55.59;100893.38;1685132;85;21007;-61
2022/10/22 07:42:07;;;;;;;10.43;6.83;;;;;;;9.32;55.31;100891.47;1736242;82;21386;-62
2022/10/22 07:44:35;;;;;;;12.33;7.03;;;;;;;9.35;55.13;100891.75;1720741;83;21008;-61
2022/10/22 07:47:01;;;;;;;12.18;6.50;;;;;;;9.37;55.26;100887.23;1724965;82;21089;-62
2022/10/22 07:49:28;;;;;;;12.53;8.40;;;;;;;9.38;55.01;100885.82;1734434;82;21230;-61
2022/10/22 07:54:02;;;;;;;12.50;6.90;;;;;;;9.53;55.36;100881.77;1795006;78;22026;-67
2022/10/22 07:56:30;;;;;;;10.35;6.72;;;;;;;9.58;54.92;100886.25;1773001;80;21037;-66
2022/10/22 07:58:56;;;;;;;11.57;6.17;;;;;;;9.60;54.97;100894.86;1772043;80;21291;-67
2022/10/22 08:01:23;;;;;;;10.90;6.58;;;;;;;9.60;54.89;100893.55;1760746;80;20979;-67
2022/10/22 08:03:50;;;;;;;12.47;6.70;;;;;;;9.63;54.90;100895.52;1783840;80;21051;-67
2022/10/22 08:07:39;;;;;;;11.25;6.37;;;;;;;9.58;55.52;100894.13;1797634;78;22605;-67
2022/10/22 08:10:07;;;;;;;10.78;7.28;;;;;;;9.67;54.97;100892.20;1782703;78;20980;-67
2022/10/22 08:12:35;;;;;;;12.20;6.67;;;;;;;9.69;55.25;100889.47;1776212;78;21025;-67
2022/10/22 08:15:04;;;;;;;12.93;7.37;;;;;;;9.70;55.66;100896.39;1787348;80;21013;-67
2022/10/22 08:17:30;;;;;;;8.30;5.72;;;;;;;9.71;55.72;100892.83;1787453;80;21019;-67
2022/10/22 08:19:57;;;;;;;11.15;6.92;;;;;;;9.71;55.26;100896.29;1787501;80;20987;-66
2022/10/22 08:22:25;;;;;;;10.70;6.50;;;;;;;9.73;54.88;100898.81;1759381;80;21007;-67
2022/10/22 08:24:52;;;;;;;10.23;6.25;;;;;;;9.72;55.05;100895.84;1755387;80;21146;-66
2022/10/22 08:27:19;;;;;;;11.80;5.72;;;;;;;9.71;55.17;100891.03;1766808;80;21026;-66
2022/10/22 08:29:45;;;;;;;9.80;5.83;;;;;;;9.73;55.59;100889.14;1785483;78;20959;-67
2022/10/22 08:32:12;;;;;;;12.47;6.12;;;;;;;9.78;55.62;100894.09;1782408;80;21070;-67
2022/10/22 08:34:39;;;;;;;10.15;6.37;;;;;;;9.80;55.58;100898.75;1746367;82;21066;-67
2022/10/22 08:37:07;;;;;;;9.00;6.08;;;;;;;9.82;55.43;100896.41;1763682;80;21159;-67
2022/10/22 08:39:34;;;;;;;13.53;6.85;;;;;;;9.84;55.52;100894.98;1761702;80;21090;-67
2022/10/22 08:42:09;;;;;;;9.28;5.78;;;;;;;9.86;55.47;100892.61;1789342;80;21101;-66
2022/10/22 08:45:13;;;;;;;9.68;5.87;;;;;;;9.86;55.42;100903.60;1776895;80;21068;-67
2022/10/22 08:47:52;;;;;;;10.20;6.10;;;;;;;9.83;55.54;100895.47;1772172;80;21094;-67
2022/10/22 08:50:39;;;;;;;11.85;6.50;;;;;;;9.83;56.09;100896.78;1771332;80;21255;-67
2022/10/22 08:53:15;;;;;;;9.23;5.72;;;;;;;9.83;56.32;100894.61;1783767;80;20989;-66
2022/10/22 08:55:42;;;;;;;10.55;6.28;;;;;;;9.87;56.49;100888.21;1765694;80;20984;-67
2022/10/22 08:58:19;;;;;;;12.00;5.92;;;;;;;9.98;56.04;100895.34;1763064;80;21043;-67
2022/10/22 09:00:53;;;;;;;11.63;6.62;;;;;;;10.04;56.21;100895.76;1763838;80;21061;-67
2022/10/22 09:03:56;;;;;;;11.97;6.45;;;;;;;10.08;55.99;100888.48;1769213;80;21217;-67
2022/10/22 09:06:25;;;;;;;13.15;6.47;;;;;;;10.10;56.30;100876.07;1773452;80;21047;-67
2022/10/22 09:08:53;;;;;;;11.00;6.37;;;;;;;10.14;56.51;100867.03;1773703;80;20995;-67
2022/10/22 09:11:37;;;;;;;10.38;6.08;;;;;;;10.17;56.88;100869.91;1773196;80;21105;-67
2022/10/22 09:14:04;;;;;;;9.18;5.78;;;;;;;10.17;56.80;100868.59;1770163;80;21402;-66
2022/10/22 09:16:38;;;;;;;12.05;7.17;;;;;;;10.18;56.53;100867.66;1766024;80;22145;-67
2022/10/22 09:19:41;;;;;;;11.85;6.37;;;;;;;10.18;57.04;100868.97;1772768;80;21093;-66
2022/10/22 09:22:31;;;;;;;13.60;6.05;;;;;;;10.19;57.24;100871.49;1770649;80;21011;-68
2022/10/22 09:25:11;;;;;;;12.50;6.40;;;;;;;10.16;57.00;100869.08;1736502;82;21564;-67
2022/10/22 09:27:38;;;;;;;11.83;6.92;;;;;;;10.12;57.53;100874.20;1763772;80;21042;-67
2022/10/22 09:30:06;;;;;;;10.60;6.20;;;;;;;10.12;57.57;100868.08;1773003;80;21531;-67
2022/10/22 09:32:33;;;;;;;9.53;5.65;;;;;;;10.11;57.82;100870.36;1769653;80;21091;-67
2022/10/22 09:35:00;;;;;;;10.00;6.00;;;;;;;10.11;58.15;100860.67;1773094;80;21004;-67
2022/10/22 09:37:28;;;;;;;10.08;5.67;;;;;;;10.18;57.90;100850.56;1745337;80;21644;-67
2022/10/22 09:39:57;;;;;;;20.27;6.67;;;;;;;10.23;57.90;100836.61;1742730;82;21563;-67
2022/10/22 09:42:24;;;;;;;9.80;6.40;;;;;;;10.25;58.09;100834.70;1708136;82;21238;-68
2022/10/22 09:44:54;;;;;;;9.40;6.37;;;;;;;10.25;58.19;100820.23;1751786;80;21082;-67
2022/10/22 09:47:40;;;;;;;10.45;7.03;;;;;;;10.26;58.34;100806.63;1769149;80;21117;-67
2022/10/22 09:50:22;;;;;;;12.58;7.47;;;;;;;10.26;58.56;100798.26;1736782;82;21028;-67
2022/10/22 09:53:04;;;;;;;9.95;6.80;;;;;;;10.27;58.86;100796.45;1763509;80;21015;-67
2022/10/22 09:55:30;;;;;;;13.83;7.78;;;;;;;10.27;59.01;100776.73;1773660;80;21135;-68
2022/10/22 09:58:00;;;;;;;11.73;7.55;;;;;;;10.26;59.15;100786.91;1760940;80;22366;-68
2022/10/22 10:00:28;;;;;;;12.68;6.90;;;;;;;10.26;59.19;100804.00;1771858;80;20979;-67
2022/10/22 10:02:56;;;;;;;11.22;5.87;;;;;;;10.28;59.35;100800.78;1758787;80;21011;-67
2022/10/22 10:05:31;;;;;;;10.45;6.60;;;;;;;10.35;59.10;100793.66;1766433;80;21039;-67
2022/10/22 10:07:58;;;;;;;8.85;5.72;;;;;;;10.48;59.28;100793.63;1764549;80;21210;-67
2022/10/22 10:10:36;;;;;;;11.33;5.50;;;;;;;10.66;59.14;100793.20;1715065;82;21036;-68
2022/10/22 10:13:24;;;;;;;10.38;5.65;;;;;;;10.73;59.28;100771.59;1759166;80;21106;-67
2022/10/22 10:15:57;;;;;;;9.63;6.25;;;;;;;10.80;59.20;100773.78;1772965;80;21094;-66
2022/10/22 10:18:44;;;;;;;10.43;6.55;;;;;;;10.87;59.14;100778.94;1754485;80;21544;-67
2022/10/22 10:21:31;;;;;;;9.93;6.58;;;;;;;10.86;59.24;100774.16;1755934;80;21154;-66
2022/10/22 10:24:21;;;;;;;9.90;5.75;;;;;;;10.92;59.21;100788.16;1768058;80;21034;-66
2022/10/22 10:26:53;;;;;;;11.12;6.12;;;;;;;10.97;59.23;100792.60;1762544;80;20998;-67
2022/10/22 10:29:25;;;;;;;7.87;5.12;;;;;;;11.02;58.94;100799.33;1760429;80;21075;-67
2022/10/22 10:32:34;;;;;;;9.38;5.58;;;;;;;11.04;58.95;100791.66;1762873;80;21846;-66
2022/10/22 10:35:31;;;;;;;10.48;5.60;;;;;;;11.08;59.18;100783.91;1740560;82;21811;-67
2022/10/22 10:38:09;;;;;;;14.75;6.47;;;;;;;11.25;59.11;100769.45;1770909;80;21062;-67
2022/10/22 10:40:56;;;;;;;11.10;6.00;;;;;;;11.40;59.23;100763.94;1750183;80;21054;-67
2022/10/22 10:43:47;;;;;;;11.68;5.80;;;;;;;11.50;58.92;100763.61;1766005;80;21118;-67
2022/10/22 10:46:28;;;;;;;11.60;6.05;;;;;;;11.59;58.80;100769.47;1758708;80;21032;-68
2022/10/22 10:48:59;;;;;;;9.00;5.85;;;;;;;11.65;58.24;100762.41;1740922;80;21255;-68
2022/10/22 10:51:53;;;;;;;12.35;5.87;;;;;;;11.70;57.69;100766.84;1761686;80;21070;-66
2022/10/22 10:54:35;;;;;;;9.28;5.58;;;;;;;11.70;57.67;100764.20;1756231;80;21658;-68
2022/10/22 10:57:22;;;;;;;9.25;5.20;;;;;;;11.73;57.63;100751.73;1763610;80;21067;-66
2022/10/22 11:00:06;;;;;;;9.55;6.15;;;;;;;11.76;57.84;100738.31;1768300;80;21082;-67
2022/10/22 11:02:47;;;;;;;10.05;6.10;;;;;;;11.77;57.92;100750.52;1748608;80;21143;-67
2022/10/22 11:05:31;;;;;;;17.98;6.25;;;;;;;11.78;57.45;100748.25;1763885;80;21000;-67
2022/10/22 11:08:20;;;;;;;9.03;5.75;;;;;;;11.76;57.18;100749.69;1759394;79;21988;-66
2022/10/22 11:11:07;;;;;;;12.88;6.30;;;;;;;11.76;57.23;100752.81;1763930;80;21074;-68
2022/10/22 11:13:52;;;;;;;11.05;5.95;;;;;;;11.74;57.15;100749.47;1760477;80;21083;-68
2022/10/22 11:16:37;;;;;;;9.28;6.00;;;;;;;11.74;57.23;100744.20;1744633;80;21305;-68
2022/10/22 11:19:24;;;;;;;9.78;5.97;;;;;;;11.76;57.10;100734.36;1757400;80;21034;-68
2022/10/22 11:22:33;;;;;;;10.35;6.15;;;;;;;11.83;57.24;100732.41;1758863;80;21096;-67
2022/10/22 11:25:17;;;;;;;11.10;7.37;;;;;;;11.99;57.36;100732.06;1757198;80;22055;-67
2022/10/22 11:28:11;;;;;;;14.85;7.85;;;;;;;12.14;56.48;100739.23;1746422;80;21086;-67
2022/10/22 11:30:40;;;;;;;16.25;8.15;;;;;;;12.21;56.43;100730.34;1758238;80;21403;-67
2022/10/22 11:33:13;;;;;;;12.53;7.45;;;;;;;12.26;55.91;100728.98;1749011;80;21047;-68
2022/10/22 11:35:42;;;;;;;12.43;8.03;;;;;;;12.30;55.89;100724.78;1759451;80;21040;-67
2022/10/22 11:38:17;;;;;;;14.78;7.53;;;;;;;12.32;55.44;100721.53;1764129;80;21018;-68
2022/10/22 11:40:53;;;;;;;15.05;7.08;;;;;;;12.33;55.42;100716.13;1742816;80;21000;-67
2022/10/22 11:43:31;;;;;;;10.90;7.33;;;;;;;12.37;55.66;100710.97;1759065;80;21152;-68
2022/10/22 11:46:17;;;;;;;12.33;7.33;;;;;;;12.40;56.28;100701.45;1771535;80;20991;-66
2022/10/22 11:48:44;;;;;;;12.75;6.97;;;;;;;12.50;56.34;100699.39;1764825;80;21106;-67
2022/10/22 11:51:34;;;;;;;13.13;6.67;;;;;;;12.54;56.22;100700.34;1723525;80;21042;-67
2022/10/22 11:54:27;;;;;;;12.13;6.58;;;;;;;12.52;56.28;100688.22;1763234;80;21539;-67
2022/10/22 11:57:17;;;;;;;12.55;7.28;;;;;;;12.55;56.58;100680.05;1772348;80;21131;-66
2022/10/22 11:59:49;;;;;;;10.82;6.42;;;;;;;12.60;56.65;100673.89;1730016;80;21079;-66